Time;durP1;ratioP1;P1;durP2;ratioP2;P2;SDS_P1;SDS_P2;PMS_P1;PMS_P2;Temp;Humidity;BMP_temperature;BMP_pressure;BME280_temperature;BME280_humidity;BME280_pressure;Samples;Min_cycle;Max_cycle;Signal;HPM_P1;HPM_P2
2023/05/19 00:00:43;;;;;;;;;;;;;;;;;;4994866;28;19937;-78
2023/05/19 00:03:11;;;;;;;;;;;;;;;;;;4993765;28;19968;-78
2023/05/19 00:05:39;;;;;;;;;;;;;;;;;;4994747;28;20381;-79
2023/05/19 00:08:05;;;;;;;;;;;;;;;;;;4993633;28;19941;-79
2023/05/19 00:10:31;;;;;;;;;;;;;;;;;;4994703;28;20274;-78
2023/05/19 00:12:57;;;;;;;;;;;;;;;;;;4977454;28;19956;-79
2023/05/19 00:15:22;;;;;;;;;;;;;;;;;;4994876;28;19953;-80
2023/05/19 00:18:13;;;;;;;;;;;;;;;;;;4985155;28;20001;-78
2023/05/19 00:20:38;;;;;;;;;;;;;;;;;;4993115;28;19953;-79
2023/05/19 00:23:03;;;;;;;;;;;;;;;;;;4993358;28;19987;-78
2023/05/19 00:25:29;;;;;;;;;;;;;;;;;;4993668;28;20404;-78
2023/05/19 00:27:54;;;;;;;;;;;;;;;;;;4994674;28;19971;-80
2023/05/19 00:30:21;;;;;;;;;;;;;;;;;;4994588;28;19914;-79
2023/05/19 00:32:50;;;;;;;;;;;;;;;;;;4993211;28;20016;-78
2023/05/19 00:35:16;;;;;;;;;;;;;;;;;;4974944;28;20008;-78
2023/05/19 00:37:41;;;;;;;;;;;;;;;;;;4973772;28;20293;-79
2023/05/19 00:40:32;;;;;;;;;;;;;;;;;;4973838;28;19962;-80
2023/05/19 00:42:58;;;;;;;;;;;;;;;;;;4973741;28;19953;-79
2023/05/19 00:45:23;;;;;;;;;;;;;;;;;;4973610;28;19910;-80
2023/05/19 00:47:48;;;;;;;;;;;;;;;;;;4973345;28;19914;-79
2023/05/19 00:50:14;;;;;;;;;;;;;;;;;;4989627;28;19918;-79
2023/05/19 00:52:39;;;;;;;;;;;;;;;;;;4973278;28;19918;-79
2023/05/19 00:55:05;;;;;;;;;;;;;;;;;;4973174;28;19914;-79
2023/05/19 00:57:30;;;;;;;;;;;;;;;;;;4974302;28;19914;-80
2023/05/19 00:59:55;;;;;;;;;;;;;;;;;;4973218;28;19918;-80
2023/05/19 01:02:21;;;;;;;;;;;;;;;;;;4974347;28;20394;-80
2023/05/19 01:04:46;;;;;;;;;;;;;;;;;;4970007;28;19914;-79
2023/05/19 01:07:12;;;;;;;;;;;;;;;;;;4992152;28;20009;-81
2023/05/19 01:09:37;;;;;;;;;;;;;;;;;;4992011;28;20393;-79
2023/05/19 01:12:02;;;;;;;;;;;;;;;;;;4992548;28;19921;-78
2023/05/19 01:14:28;;;;;;;;;;;;;;;;;;4992538;28;20355;-79
2023/05/19 01:16:55;;;;;;;;;;;;;;;;;;4991826;28;20363;-80
2023/05/19 01:19:20;;;;;;;;;;;;;;;;;;4992212;28;20377;-79
2023/05/19 01:21:46;;;;;;;;;;;;;;;;;;4975933;28;19914;-79
2023/05/19 01:24:14;;;;;;;;;;;;;;;;;;4992220;28;20408;-77
2023/05/19 01:26:39;;;;;;;;;;;;;;;;;;4992961;28;19914;-78
2023/05/19 01:29:08;;;;;;;;;;;;;;;;;;4992310;28;19918;-80
2023/05/19 01:31:33;;;;;;;;;;;;;;;;;;4992067;28;19913;-79
2023/05/19 01:33:58;;;;;;;;;;;;;;;;;;4968093;28;20389;-78
2023/05/19 01:36:24;;;;;;;;;;;;;;;;;;4956833;28;19918;-79
2023/05/19 01:38:49;;;;;;;;;;;;;;;;;;4972477;28;19915;-77
2023/05/19 01:41:15;;;;;;;;;;;;;;;;;;4973676;28;20317;-79
2023/05/19 01:43:40;;;;;;;;;;;;;;;;;;4973858;28;19920;-78
2023/05/19 01:46:06;;;;;;;;;;;;;;;;;;4974390;28;20329;-79
2023/05/19 01:48:31;;;;;;;;;;;;;;;;;;4973504;28;20328;-79
2023/05/19 01:50:57;;;;;;;;;;;;;;;;;;4973079;28;19921;-78
2023/05/19 01:53:22;;;;;;;;;;;;;;;;;;4956892;28;20301;-78
2023/05/19 01:55:48;;;;;;;;;;;;;;;;;;4973074;28;20289;-80
2023/05/19 01:58:14;;;;;;;;;;;;;;;;;;4974011;28;19925;-80
2023/05/19 02:00:39;;;;;;;;;;;;;;;;;;4977394;28;19992;-78
2023/05/19 02:03:04;;;;;;;;;;;;;;;;;;4978328;28;19918;-77
2023/05/19 02:05:30;;;;;;;;;;;;;;;;;;4998605;28;19914;-79
2023/05/19 02:07:56;;;;;;;;;;;;;;;;;;5001821;28;19952;-79
2023/05/19 02:10:21;;;;;;;;;;;;;;;;;;5005687;28;19913;-78
2023/05/19 02:12:47;;;;;;;;;;;;;;;;;;4992754;28;19945;-80
2023/05/19 02:15:15;;;;;;;;;;;;;;;;;;4995776;28;19984;-79
2023/05/19 02:17:41;;;;;;;;;;;;;;;;;;4995166;28;20300;-79
2023/05/19 02:20:08;;;;;;;;;;;;;;;;;;4998119;28;19968;-77
2023/05/19 02:22:33;;;;;;;;;;;;;;;;;;4985787;28;19978;-76
2023/05/19 02:24:59;;;;;;;;;;;;;;;;;;4986387;28;19914;-78
2023/05/19 02:27:25;;;;;;;;;;;;;;;;;;5004389;28;19926;-77
2023/05/19 02:29:50;;;;;;;;;;;;;;;;;;5008235;28;19990;-76
2023/05/19 02:32:15;;;;;;;;;;;;;;;;;;5000721;28;19910;-79
2023/05/19 02:34:44;;;;;;;;;;;;;;;;;;4982272;28;20004;-79
2023/05/19 02:37:09;;;;;;;;;;;;;;;;;;4976386;28;19946;-79
2023/05/19 02:39:35;;;;;;;;;;;;;;;;;;4977002;28;20317;-79
2023/05/19 02:42:25;;;;;;;;;;;;;;;;;;4977638;28;20393;-78
2023/05/19 02:44:54;;;;;;;;;;;;;;;;;;4976360;28;20471;-79
2023/05/19 02:47:19;;;;;;;;;;;;;;;;;;4961532;28;19910;-79
2023/05/19 02:49:45;;;;;;;;;;;;;;;;;;4978031;28;20121;-79
2023/05/19 02:52:11;;;;;;;;;;;;;;;;;;4978529;28;19961;-79
2023/05/19 02:54:36;;;;;;;;;;;;;;;;;;4977693;28;19914;-79
2023/05/19 02:57:02;;;;;;;;;;;;;;;;;;4981459;28;20020;-79
2023/05/19 02:59:27;;;;;;;;;;;;;;;;;;4981904;28;19914;-79
2023/05/19 03:01:53;;;;;;;;;;;;;;;;;;4978969;28;19985;-81
2023/05/19 03:04:18;;;;;;;;;;;;;;;;;;4986634;28;19937;-80
2023/05/19 03:06:44;;;;;;;;;;;;;;;;;;5000115;28;19925;-80
2023/05/19 03:09:10;;;;;;;;;;;;;;;;;;4982616;28;19914;-79
2023/05/19 03:11:38;;;;;;;;;;;;;;;;;;4982452;28;19914;-79
2023/05/19 03:14:10;;;;;;;;;;;;;;;;;;4988503;28;19925;-78
2023/05/19 03:16:36;;;;;;;;;;;;;;;;;;4998152;28;20000;-80
2023/05/19 03:19:01;;;;;;;;;;;;;;;;;;4999564;28;19960;-79
2023/05/19 03:21:27;;;;;;;;;;;;;;;;;;4999121;28;19924;-79
2023/05/19 03:23:53;;;;;;;;;;;;;;;;;;4968182;28;19989;-80
2023/05/19 03:26:19;;;;;;;;;;;;;;;;;;4999893;28;20188;-79
2023/05/19 03:28:44;;;;;;;;;;;;;;;;;;5001083;28;20411;-78
2023/05/19 03:31:09;;;;;;;;;;;;;;;;;;4982178;28;19914;-80
2023/05/19 03:33:37;;;;;;;;;;;;;;;;;;4994077;28;20278;-78
2023/05/19 03:36:02;;;;;;;;;;;;;;;;;;4979369;28;19920;-78
2023/05/19 03:38:32;;;;;;;;;;;;;;;;;;4980475;28;19914;-80
2023/05/19 03:41:01;;;;;;;;;;;;;;;;;;4980009;28;19922;-77
2023/05/19 03:43:27;;;;;;;;;;;;;;;;;;4974846;28;19942;-79
2023/05/19 03:45:56;;;;;;;;;;;;;;;;;;4974680;28;19914;-78
2023/05/19 03:48:40;;;;;;;;;;;;;;;;;;4975907;28;19914;-79
2023/05/19 03:51:19;;;;;;;;;;;;;;;;;;4974678;28;19921;-79
2023/05/19 03:53:47;;;;;;;;;;;;;;;;;;4974634;28;20393;-79
2023/05/19 03:56:12;;;;;;;;;;;;;;;;;;4974590;28;20009;-80
2023/05/19 03:58:42;;;;;;;;;;;;;;;;;;4974469;28;19917;-78
2023/05/19 04:01:07;;;;;;;;;;;;;;;;;;4976009;28;19914;-79
2023/05/19 04:03:33;;;;;;;;;;;;;;;;;;4975535;28;19910;-79
2023/05/19 04:05:58;;;;;;;;;;;;;;;;;;5015036;28;19948;-79
2023/05/19 04:08:23;;;;;;;;;;;;;;;;;;4997510;28;19924;-79
2023/05/19 04:10:49;;;;;;;;;;;;;;;;;;4997515;28;20020;-79
2023/05/19 04:13:14;;;;;;;;;;;;;;;;;;5021357;28;19990;-80
2023/05/19 04:15:40;;;;;;;;;;;;;;;;;;5025344;28;19913;-79
2023/05/19 04:18:05;;;;;;;;;;;;;;;;;;5003337;28;20330;-79
2023/05/19 04:20:34;;;;;;;;;;;;;;;;;;4997243;28;19925;-77
2023/05/19 04:22:59;;;;;;;;;;;;;;;;;;4996494;28;19914;-79
2023/05/19 04:25:27;;;;;;;;;;;;;;;;;;4996632;28;20429;-78
2023/05/19 04:27:56;;;;;;;;;;;;;;;;;;5011397;22;19937;-80
2023/05/19 04:30:21;;;;;;;;;;;;;;;;;;4979323;28;20359;-79
2023/05/19 04:32:49;;;;;;;;;;;;;;;;;;4980083;28;19921;-79
2023/05/19 04:35:18;;;;;;;;;;;;;;;;;;4992957;28;19945;-79
2023/05/19 04:37:44;;;;;;;;;;;;;;;;;;4989655;28;19918;-80
2023/05/19 04:40:16;;;;;;;;;;;;;;;;;;4989618;28;19911;-80
2023/05/19 04:42:44;;;;;;;;;;;;;;;;;;4973625;28;19914;-78
2023/05/19 04:45:14;;;;;;;;;;;;;;;;;;4989626;28;19910;-80
2023/05/19 04:47:42;;;;;;;;;;;;;;;;;;4989836;28;19921;-80
2023/05/19 04:50:09;;;;;;;;;;;;;;;;;;4989246;28;20360;-79
2023/05/19 04:52:35;;;;;;;;;;;;;;;;;;4974444;28;19922;-82
2023/05/19 04:55:02;;;;;;;;;;;;;;;;;;4989606;28;19921;-81
2023/05/19 04:57:28;;;;;;;;;;;;;;;;;;4974634;28;19918;-78
2023/05/19 04:59:58;;;;;;;;;;;;;;;;;;5006255;28;19914;-81
2023/05/19 05:02:49;;;;;;;;;;;;;;;;;;4981128;28;20316;-81
2023/05/19 05:05:17;;;;;;;;;;;;;;;;;;4967689;28;19918;-80
2023/05/19 05:07:43;;;;;;;;;;;;;;;;;;4992504;28;20340;-79
2023/05/19 05:10:09;;;;;;;;;;;;;;;;;;4992079;28;19937;-79
2023/05/19 05:12:35;;;;;;;;;;;;;;;;;;4959776;28;19922;-80
2023/05/19 05:15:00;;;;;;;;;;;;;;;;;;4992262;28;19964;-81
2023/05/19 05:17:27;;;;;;;;;;;;;;;;;;4993210;28;19920;-78
2023/05/19 05:19:52;;;;;;;;;;;;;;;;;;4992085;28;19918;-80
2023/05/19 05:22:18;;;;;;;;;;;;;;;;;;4976334;28;19992;-77
2023/05/19 05:24:43;;;;;;;;;;;;;;;;;;4976511;28;19921;-79
2023/05/19 05:27:09;;;;;;;;;;;;;;;;;;4991827;28;20008;-79
2023/05/19 05:29:35;;;;;;;;;;;;;;;;;;4991574;28;19965;-80
2023/05/19 05:32:02;;;;;;;;;;;;;;;;;;4991489;28;19915;-79
2023/05/19 05:34:28;;;;;;;;;;;;;;;;;;4965401;28;19918;-79
2023/05/19 05:36:53;;;;;;;;;;;;;;;;;;4978790;28;20001;-79
2023/05/19 05:39:20;;;;;;;;;;;;;;;;;;4974501;28;19914;-79
2023/05/19 05:41:45;;;;;;;;;;;;;;;;;;4992387;28;19921;-78
2023/05/19 05:44:11;;;;;;;;;;;;;;;;;;4991148;28;20013;-78
2023/05/19 05:46:42;;;;;;;;;;;;;;;;;;5007748;28;19956;-80
2023/05/19 05:49:08;;;;;;;;;;;;;;;;;;4992548;28;19914;-78
2023/05/19 05:51:34;;;;;;;;;;;;;;;;;;4991209;28;20292;-78
2023/05/19 05:54:00;;;;;;;;;;;;;;;;;;4977122;28;19925;-78
2023/05/19 05:56:37;;;;;;;;;;;;;;;;;;4992049;28;19909;-79
2023/05/19 05:59:04;;;;;;;;;;;;;;;;;;4969773;28;19922;-78
2023/05/19 06:01:34;;;;;;;;;;;;;;;;;;4990936;28;19918;-78
2023/05/19 06:04:24;;;;;;;;;;;;;;;;;;4992290;28;19914;-78
2023/05/19 06:06:59;;;;;;;;;;;;;;;;;;4991220;28;19918;-78
2023/05/19 06:09:25;;;;;;;;;;;;;;;;;;5006609;28;19921;-78
2023/05/19 06:11:50;;;;;;;;;;;;;;;;;;4990849;28;19913;-78
2023/05/19 06:14:40;;;;;;;;;;;;;;;;;;4990996;28;20117;-80
2023/05/19 06:17:38;;;;;;;;;;;;;;;;;;4990763;28;20016;-79
2023/05/19 06:20:10;;;;;;;;;;;;;;;;;;4991883;28;19957;-79
2023/05/19 06:22:36;;;;;;;;;;;;;;;;;;4974728;28;19920;-78
2023/05/19 06:25:02;;;;;;;;;;;;;;;;;;5016961;28;19921;-82
2023/05/19 06:27:27;;;;;;;;;;;;;;;;;;5007277;28;19921;-79
2023/05/19 06:29:53;;;;;;;;;;;;;;;;;;4978245;28;20312;-78
2023/05/19 06:32:19;;;;;;;;;;;;;;;;;;4992179;28;19914;-80
2023/05/19 06:34:45;;;;;;;;;;;;;;;;;;4999961;28;19949;-79
2023/05/19 06:37:35;;;;;;;;;;;;;;;;;;4988400;28;19914;-77
2023/05/19 06:40:02;;;;;;;;;;;;;;;;;;5007273;28;19913;-80
2023/05/19 06:42:53;;;;;;;;;;;;;;;;;;4990682;28;20008;-81
2023/05/19 06:45:26;;;;;;;;;;;;;;;;;;4990949;28;19965;-79
2023/05/19 06:47:53;;;;;;;;;;;;;;;;;;4974744;28;19933;-79
2023/05/19 06:50:19;;;;;;;;;;;;;;;;;;4990044;28;19914;-80
2023/05/19 06:52:47;;;;;;;;;;;;;;;;;;5005269;28;19965;-78
2023/05/19 06:55:13;;;;;;;;;;;;;;;;;;4990468;28;19921;-80
2023/05/19 06:57:38;;;;;;;;;;;;;;;;;;4974496;28;19922;-78
2023/05/19 07:00:07;;;;;;;;;;;;;;;;;;4990311;28;20356;-79
2023/05/19 07:02:33;;;;;;;;;;;;;;;;;;4990307;28;20365;-79
2023/05/19 07:04:58;;;;;;;;;;;;;;;;;;4974533;28;19913;-78
2023/05/19 07:07:25;;;;;;;;;;;;;;;;;;4976908;28;19937;-78
2023/05/19 07:09:51;;;;;;;;;;;;;;;;;;4977914;28;19914;-79
2023/05/19 07:12:17;;;;;;;;;;;;;;;;;;4984234;28;19917;-78
2023/05/19 07:14:42;;;;;;;;;;;;;;;;;;4993999;28;19925;-78
2023/05/19 07:17:11;;;;;;;;;;;;;;;;;;4980709;28;19921;-79
2023/05/19 07:19:41;;;;;;;;;;;;;;;;;;4978095;28;19913;-79
2023/05/19 07:22:07;;;;;;;;;;;;;;;;;;4990731;28;20046;-78
2023/05/19 07:24:32;;;;;;;;;;;;;;;;;;4993208;28;20001;-78
2023/05/19 07:26:58;;;;;;;;;;;;;;;;;;4974263;28;19915;-79
2023/05/19 07:29:23;;;;;;;;;;;;;;;;;;4991453;28;19977;-78
2023/05/19 07:31:56;;;;;;;;;;;;;;;;;;4993582;28;19964;-79
2023/05/19 07:34:22;;;;;;;;;;;;;;;;;;5005846;28;19922;-78
2023/05/19 07:37:21;;;;;;;;;;;;;;;;;;4992156;28;19925;-79
2023/05/19 07:39:46;;;;;;;;;;;;;;;;;;4993428;28;19922;-78
2023/05/19 07:42:12;;;;;;;;;;;;;;;;;;4958198;28;19962;-77
2023/05/19 07:44:37;;;;;;;;;;;;;;;;;;4961003;28;19914;-78
2023/05/19 07:47:03;;;;;;;;;;;;;;;;;;4994795;28;20451;-80
2023/05/19 07:49:29;;;;;;;;;;;;;;;;;;4976619;28;20284;-79
2023/05/19 07:51:55;;;;;;;;;;;;;;;;;;4993258;28;20349;-78
2023/05/19 07:54:20;;;;;;;;;;;;;;;;;;4993282;28;19914;-78
2023/05/19 07:57:10;;;;;;;;;;;;;;;;;;4980364;28;19941;-79
2023/05/19 07:59:36;;;;;;;;;;;;;;;;;;4977142;28;19914;-78
2023/05/19 08:02:26;;;;;;;;;;;;;;;;;;4991185;28;20369;-78
2023/05/19 08:04:53;;;;;;;;;;;;;;;;;;4982902;28;19918;-78
2023/05/19 08:07:22;;;;;;;;;;;;;;;;;;4976451;28;19918;-78
2023/05/19 08:09:47;;;;;;;;;;;;;;;;;;4976607;28;19914;-79
2023/05/19 08:12:13;;;;;;;;;;;;;;;;;;4994159;28;19914;-79
2023/05/19 08:14:38;;;;;;;;;;;;;;;;;;4960459;28;19918;-80
2023/05/19 08:17:05;;;;;;;;;;;;;;;;;;4996423;28;19918;-80
2023/05/19 08:19:30;;;;;;;;;;;;;;;;;;5008916;28;19956;-78
2023/05/19 08:21:57;;;;;;;;;;;;;;;;;;4974728;28;20435;-80
2023/05/19 08:24:22;;;;;;;;;;;;;;;;;;4993792;28;19918;-81
2023/05/19 08:26:48;;;;;;;;;;;;;;;;;;5008321;28;19924;-78
2023/05/19 08:29:15;;;;;;;;;;;;;;;;;;5014842;28;19918;-79
2023/05/19 08:31:41;;;;;;;;;;;;;;;;;;5008809;28;19913;-79
2023/05/19 08:34:06;;;;;;;;;;;;;;;;;;4991927;28;20377;-79
2023/05/19 08:36:32;;;;;;;;;;;;;;;;;;4993872;28;20325;-78
2023/05/19 08:39:00;;;;;;;;;;;;;;;;;;4992840;28;19952;-78
2023/05/19 08:41:53;;;;;;;;;;;;;;;;;;4980801;28;19918;-79
2023/05/19 08:44:19;;;;;;;;;;;;;;;;;;4966985;28;19925;-80
2023/05/19 08:46:47;;;;;;;;;;;;;;;;;;4992926;28;19914;-80
2023/05/19 08:49:12;;;;;;;;;;;;;;;;;;4990041;28;19937;-80
2023/05/19 08:51:41;;;;;;;;;;;;;;;;;;4993588;28;19921;-77
2023/05/19 08:54:06;;;;;;;;;;;;;;;;;;4993339;28;19917;-79
2023/05/19 08:56:57;;;;;;;;;;;;;;;;;;4992339;28;19924;-78
2023/05/19 08:59:23;;;;;;;;;;;;;;;;;;4990573;28;19918;-82
2023/05/19 09:01:48;;;;;;;;;;;;;;;;;;4978243;28;20282;-78
2023/05/19 09:04:14;;;;;;;;;;;;;;;;;;5009512;28;19914;-79
2023/05/19 09:07:08;;;;;;;;;;;;;;;;;;4982748;28;19914;-79
2023/05/19 09:09:33;;;;;;;;;;;;;;;;;;4975591;28;20007;-80
2023/05/19 09:11:59;;;;;;;;;;;;;;;;;;4975983;28;19962;-78
2023/05/19 09:14:25;;;;;;;;;;;;;;;;;;4992782;28;19918;-80
2023/05/19 09:16:51;;;;;;;;;;;;;;;;;;4991789;28;19914;-80
2023/05/19 09:19:17;;;;;;;;;;;;;;;;;;4992490;28;19960;-79
2023/05/19 09:21:44;;;;;;;;;;;;;;;;;;4991957;28;19956;-80
2023/05/19 09:24:10;;;;;;;;;;;;;;;;;;4981553;28;19914;-80
2023/05/19 09:26:38;;;;;;;;;;;;;;;;;;4999296;28;19925;-79
2023/05/19 09:29:04;;;;;;;;;;;;;;;;;;4975774;28;19917;-80
2023/05/19 09:31:30;;;;;;;;;;;;;;;;;;4992033;28;19914;-80
2023/05/19 09:33:55;;;;;;;;;;;;;;;;;;4991033;28;19975;-80
2023/05/19 09:36:45;;;;;;;;;;;;;;;;;;4991861;28;20017;-82
2023/05/19 09:39:11;;;;;;;;;;;;;;;;;;4988962;28;20016;-80
2023/05/19 09:41:40;;;;;;;;;;;;;;;;;;4992005;28;19932;-81
2023/05/19 09:44:06;;;;;;;;;;;;;;;;;;4976519;28;19913;-80
2023/05/19 09:46:57;;;;;;;;;;;;;;;;;;4993152;28;19914;-81
2023/05/19 09:49:49;;;;;;;;;;;;;;;;;;4979688;28;19976;-79
2023/05/19 09:52:17;;;;;;;;;;;;;;;;;;4992283;28;20270;-80
2023/05/19 09:54:44;;;;;;;;;;;;;;;;;;4959622;28;19918;-79
2023/05/19 09:57:09;;;;;;;;;;;;;;;;;;4972663;28;19914;-80
2023/05/19 09:59:37;;;;;;;;;;;;;;;;;;4991322;28;19960;-81
2023/05/19 10:02:03;;;;;;;;;;;;;;;;;;4974989;28;20009;-80
2023/05/19 10:04:29;;;;;;;;;;;;;;;;;;4975556;28;19949;-81
2023/05/19 10:06:55;;;;;;;;;;;;;;;;;;4959515;28;19918;-79
2023/05/19 10:09:20;;;;;;;;;;;;;;;;;;4959193;28;19922;-80
2023/05/19 10:11:46;;;;;;;;;;;;;;;;;;4975611;28;19933;-80
2023/05/19 10:14:12;;;;;;;;;;;;;;;;;;4990827;28;19961;-80
2023/05/19 10:16:37;;;;;;;;;;;;;;;;;;4991595;28;19917;-80
2023/05/19 10:19:03;;;;;;;;;;;;;;;;;;4990807;28;19920;-80
2023/05/19 10:21:28;;;;;;;;;;;;;;;;;;4991144;28;19957;-80
2023/05/19 10:23:54;;;;;;;;;;;;;;;;;;4978007;28;19917;-79
2023/05/19 10:29:48;;;;;;;;;;;;;;;;;;5015514;23;19983;-77
2023/05/19 10:32:14;;;;;;;;;;;;;;;;;;4990856;28;20385;-79
2023/05/19 10:34:40;;;;;;;;;;;;;;;;;;5005938;28;19964;-76
2023/05/19 10:37:05;;;;;;;;;;;;;;;;;;5016499;28;20304;-78
2023/05/19 10:39:31;;;;;;;;;;;;;;;;;;5015985;28;19917;-77
2023/05/19 10:41:56;;;;;;;;;;;;;;;;;;5015628;28;20015;-78
2023/05/19 10:44:22;;;;;;;;;;;;;;;;;;5017142;28;19921;-76
2023/05/19 10:46:47;;;;;;;;;;;;;;;;;;4997739;28;19914;-78
2023/05/19 10:49:12;;;;;;;;;;;;;;;;;;5014127;28;20001;-80
2023/05/19 10:51:38;;;;;;;;;;;;;;;;;;5013710;28;19920;-78
2023/05/19 10:54:06;;;;;;;;;;;;;;;;;;5014970;28;19923;-77
2023/05/19 10:56:33;;;;;;;;;;;;;;;;;;4997486;28;20686;-77
2023/05/19 10:58:59;;;;;;;;;;;;;;;;;;5013878;28;19936;-78
2023/05/19 11:01:24;;;;;;;;;;;;;;;;;;5014341;28;19988;-78
2023/05/19 11:03:51;;;;;;;;;;;;;;;;;;5015190;28;19921;-77
2023/05/19 11:06:16;;;;;;;;;;;;;;;;;;5022903;28;19913;-77
2023/05/19 11:08:41;;;;;;;;;;;;;;;;;;5013719;28;19921;-77
2023/05/19 11:11:07;;;;;;;;;;;;;;;;;;5014549;28;20005;-78
2023/05/19 11:13:32;;;;;;;;;;;;;;;;;;5012952;28;19921;-78
2023/05/19 11:16:00;;;;;;;;;;;;;;;;;;5014948;28;19936;-78
2023/05/19 11:18:25;;;;;;;;;;;;;;;;;;5014996;28;19921;-78
2023/05/19 11:20:50;;;;;;;;;;;;;;;;;;5013900;28;19917;-78
2023/05/19 11:23:22;;;;;;;;;;;;;;;;;;5014932;28;19913;-80
2023/05/19 11:25:47;;;;;;;;;;;;;;;;;;5015306;28;19913;-79
2023/05/19 11:28:13;;;;;;;;;;;;;;;;;;5014928;28;19979;-77
2023/05/19 11:30:38;;;;;;;;;;;;;;;;;;5013554;28;19921;-80
2023/05/19 11:33:04;;;;;;;;;;;;;;;;;;5013767;28;19917;-79
2023/05/19 11:35:30;;;;;;;;;;;;;;;;;;5012923;28;20343;-85
2023/05/19 11:37:56;;;;;;;;;;;;;;;;;;4999182;28;19952;-84
2023/05/19 11:40:21;;;;;;;;;;;;;;;;;;5014828;28;20403;-82
2023/05/19 11:42:47;;;;;;;;;;;;;;;;;;5014506;28;19914;-84
2023/05/19 11:45:12;;;;;;;;;;;;;;;;;;4997860;28;20340;-83
2023/05/19 11:47:38;;;;;;;;;;;;;;;;;;5015074;28;19913;-84
2023/05/19 11:50:03;;;;;;;;;;;;;;;;;;4989596;28;19914;-80
2023/05/19 11:52:29;;;;;;;;;;;;;;;;;;5012269;28;19897;-82
2023/05/19 11:54:55;;;;;;;;;;;;;;;;;;5014621;28;19924;-78
2023/05/19 11:57:21;;;;;;;;;;;;;;;;;;5030913;28;19976;-79
2023/05/19 11:59:48;;;;;;;;;;;;;;;;;;5026540;28;20290;-79
2023/05/19 12:02:14;;;;;;;;;;;;;;;;;;5020441;28;19925;-81
2023/05/19 12:04:39;;;;;;;;;;;;;;;;;;5028919;28;19988;-80
2023/05/19 12:07:05;;;;;;;;;;;;;;;;;;5007324;28;19972;-78
2023/05/19 12:09:30;;;;;;;;;;;;;;;;;;5013804;28;19959;-79
2023/05/19 12:11:55;;;;;;;;;;;;;;;;;;5013082;28;20369;-79
2023/05/19 12:14:21;;;;;;;;;;;;;;;;;;5013632;28;19932;-80
2023/05/19 12:16:46;;;;;;;;;;;;;;;;;;5014446;28;19914;-81
2023/05/19 12:19:12;;;;;;;;;;;;;;;;;;5014607;28;19920;-82
2023/05/19 12:21:37;;;;;;;;;;;;;;;;;;5014348;28;19921;-78
2023/05/19 12:24:02;;;;;;;;;;;;;;;;;;5015248;28;20012;-79
2023/05/19 12:26:28;;;;;;;;;;;;;;;;;;5015235;28;19914;-79
2023/05/19 12:28:53;;;;;;;;;;;;;;;;;;5012339;28;20007;-79
2023/05/19 12:31:19;;;;;;;;;;;;;;;;;;5013902;28;19913;-79
2023/05/19 12:33:44;;;;;;;;;;;;;;;;;;5006485;28;19925;-78
2023/05/19 12:36:12;;;;;;;;;;;;;;;;;;5002464;28;19964;-79
2023/05/19 12:38:38;;;;;;;;;;;;;;;;;;4996277;28;20006;-79
2023/05/19 12:41:06;;;;;;;;;;;;;;;;;;5012846;28;19920;-79
2023/05/19 12:43:32;;;;;;;;;;;;;;;;;;5013423;28;20339;-79
2023/05/19 12:45:57;;;;;;;;;;;;;;;;;;4995689;28;19921;-78
2023/05/19 12:48:25;;;;;;;;;;;;;;;;;;5011834;28;20398;-78
2023/05/19 12:50:51;;;;;;;;;;;;;;;;;;5010992;28;20000;-79
2023/05/19 12:53:17;;;;;;;;;;;;;;;;;;5011452;28;19925;-78
2023/05/19 12:55:42;;;;;;;;;;;;;;;;;;5011515;28;19913;-78
2023/05/19 12:58:07;;;;;;;;;;;;;;;;;;5011601;28;19961;-77
2023/05/19 13:00:34;;;;;;;;;;;;;;;;;;5011535;28;19914;-77
2023/05/19 13:03:00;;;;;;;;;;;;;;;;;;5010643;28;19914;-78
2023/05/19 13:05:25;;;;;;;;;;;;;;;;;;5011000;28;20336;-78
2023/05/19 13:07:51;;;;;;;;;;;;;;;;;;5013683;28;19917;-78
2023/05/19 13:10:18;;;;;;;;;;;;;;;;;;5011595;28;20225;-78
2023/05/19 13:12:44;;;;;;;;;;;;;;;;;;5013604;28;19913;-78
2023/05/19 13:15:09;;;;;;;;;;;;;;;;;;5014766;28;19913;-78
2023/05/19 13:17:35;;;;;;;;;;;;;;;;;;5015455;28;19914;-77
2023/05/19 13:20:03;;;;;;;;;;;;;;;;;;5015470;28;19936;-78
2023/05/19 13:22:29;;;;;;;;;;;;;;;;;;5014337;28;19914;-77
2023/05/19 13:24:57;;;;;;;;;;;;;;;;;;5016246;28;20339;-78
2023/05/19 13:27:23;;;;;;;;;;;;;;;;;;4999959;28;20016;-78
2023/05/19 13:29:48;;;;;;;;;;;;;;;;;;5011889;28;19976;-78
2023/05/19 13:32:14;;;;;;;;;;;;;;;;;;5011889;28;20400;-78
2023/05/19 13:34:40;;;;;;;;;;;;;;;;;;4977979;28;20004;-78
2023/05/19 13:37:08;;;;;;;;;;;;;;;;;;5010984;28;19913;-77
2023/05/19 13:39:33;;;;;;;;;;;;;;;;;;5010978;28;20147;-78
2023/05/19 13:42:01;;;;;;;;;;;;;;;;;;5012925;28;20305;-79
2023/05/19 13:44:26;;;;;;;;;;;;;;;;;;5011802;28;19924;-78
2023/05/19 13:46:52;;;;;;;;;;;;;;;;;;5010997;28;19998;-79
2023/05/19 13:49:17;;;;;;;;;;;;;;;;;;5011070;28;19913;-77
2023/05/19 13:51:43;;;;;;;;;;;;;;;;;;5011383;28;19917;-78
2023/05/19 13:54:08;;;;;;;;;;;;;;;;;;5012979;28;20381;-78
2023/05/19 13:56:34;;;;;;;;;;;;;;;;;;5012670;28;19964;-78
2023/05/19 13:58:59;;;;;;;;;;;;;;;;;;5012502;28;20380;-78
2023/05/19 14:01:25;;;;;;;;;;;;;;;;;;5012213;28;19917;-78
2023/05/19 14:03:51;;;;;;;;;;;;;;;;;;5012280;28;19922;-76
2023/05/19 14:06:16;;;;;;;;;;;;;;;;;;5019136;28;19928;-78
2023/05/19 14:08:41;;;;;;;;;;;;;;;;;;5019396;28;19939;-77
2023/05/19 14:11:07;;;;;;;;;;;;;;;;;;5012483;28;19952;-77
2023/05/19 14:13:33;;;;;;;;;;;;;;;;;;5012712;28;19917;-77
2023/05/19 14:15:58;;;;;;;;;;;;;;;;;;5014990;28;20000;-78
2023/05/19 14:18:23;;;;;;;;;;;;;;;;;;5016136;28;19910;-78
2023/05/19 14:20:52;;;;;;;;;;;;;;;;;;5016320;28;19970;-78
2023/05/19 14:23:18;;;;;;;;;;;;;;;;;;5016481;28;20288;-78
2023/05/19 14:25:44;;;;;;;;;;;;;;;;;;4999121;28;19913;-78
2023/05/19 14:28:13;;;;;;;;;;;;;;;;;;4999193;28;19913;-77
2023/05/19 14:30:39;;;;;;;;;;;;;;;;;;5015307;28;20372;-77
2023/05/19 14:33:04;;;;;;;;;;;;;;;;;;5013685;28;20282;-77
2023/05/19 14:35:32;;;;;;;;;;;;;;;;;;5016459;28;20431;-78
2023/05/19 14:37:58;;;;;;;;;;;;;;;;;;4998704;28;19917;-77
2023/05/19 14:40:23;;;;;;;;;;;;;;;;;;5015041;28;19909;-79
2023/05/19 14:42:49;;;;;;;;;;;;;;;;;;5014753;28;19918;-78
2023/05/19 14:45:22;;;;;;;;;;;;;;;;;;5015194;28;19914;-77
2023/05/19 14:47:48;;;;;;;;;;;;;;;;;;5016724;28;19920;-79
2023/05/19 14:50:13;;;;;;;;;;;;;;;;;;5016720;28;20380;-79
2023/05/19 14:52:38;;;;;;;;;;;;;;;;;;5017524;28;20381;-79
2023/05/19 14:55:07;;;;;;;;;;;;;;;;;;5016647;28;19921;-79
2023/05/19 14:57:32;;;;;;;;;;;;;;;;;;5022875;28;20377;-78
2023/05/19 15:00:01;;;;;;;;;;;;;;;;;;5021639;28;19917;-80
2023/05/19 15:02:26;;;;;;;;;;;;;;;;;;5022697;28;19968;-79
2023/05/19 15:05:21;;;;;;;;;;;;;;;;;;5017418;28;19996;-78
2023/05/19 15:07:47;;;;;;;;;;;;;;;;;;5031628;28;20004;-78
2023/05/19 15:10:12;;;;;;;;;;;;;;;;;;5017721;28;20314;-77
2023/05/19 15:12:40;;;;;;;;;;;;;;;;;;5019185;28;19935;-78
2023/05/19 15:15:05;;;;;;;;;;;;;;;;;;5017860;28;20373;-76
2023/05/19 15:17:31;;;;;;;;;;;;;;;;;;5015594;28;19963;-77
2023/05/19 15:19:56;;;;;;;;;;;;;;;;;;5015001;28;19917;-78
2023/05/19 15:22:25;;;;;;;;;;;;;;;;;;5015458;28;19914;-78
2023/05/19 15:24:50;;;;;;;;;;;;;;;;;;5014854;28;19924;-77
2023/05/19 15:27:16;;;;;;;;;;;;;;;;;;5013725;28;20404;-77
2023/05/19 15:29:41;;;;;;;;;;;;;;;;;;5014070;28;19921;-78
2023/05/19 15:32:06;;;;;;;;;;;;;;;;;;5014728;28;19963;-78
2023/05/19 15:34:32;;;;;;;;;;;;;;;;;;5013495;28;19957;-77
2023/05/19 15:36:57;;;;;;;;;;;;;;;;;;5013352;28;19914;-77
2023/05/19 15:39:23;;;;;;;;;;;;;;;;;;5012353;28;20428;-78
2023/05/19 15:41:50;;;;;;;;;;;;;;;;;;5013929;28;20016;-77
2023/05/19 15:44:15;;;;;;;;;;;;;;;;;;5013926;28;20392;-78
2023/05/19 15:46:41;;;;;;;;;;;;;;;;;;5014053;28;19918;-77
2023/05/19 15:49:09;;;;;;;;;;;;;;;;;;5012685;28;20285;-78
2023/05/19 15:51:35;;;;;;;;;;;;;;;;;;5014242;28;19920;-78
2023/05/19 15:54:00;;;;;;;;;;;;;;;;;;5014421;28;19917;-78
2023/05/19 15:56:26;;;;;;;;;;;;;;;;;;5012908;28;19916;-78
2023/05/19 15:58:51;;;;;;;;;;;;;;;;;;5012803;28;20381;-78
2023/05/19 16:01:20;;;;;;;;;;;;;;;;;;5013792;28;20004;-78
2023/05/19 16:03:46;;;;;;;;;;;;;;;;;;5012910;28;19918;-79
2023/05/19 16:06:11;;;;;;;;;;;;;;;;;;5017051;28;20339;-76
2023/05/19 16:08:36;;;;;;;;;;;;;;;;;;5020455;28;20368;-78
2023/05/19 16:11:02;;;;;;;;;;;;;;;;;;5000054;28;19987;-77
2023/05/19 16:13:32;;;;;;;;;;;;;;;;;;5013163;28;19917;-76
2023/05/19 16:15:58;;;;;;;;;;;;;;;;;;5012860;28;19914;-77
2023/05/19 16:18:23;;;;;;;;;;;;;;;;;;5014212;28;20391;-77
2023/05/19 16:20:49;;;;;;;;;;;;;;;;;;5012774;28;19959;-77
2023/05/19 16:23:14;;;;;;;;;;;;;;;;;;5012628;28;19913;-78
2023/05/19 16:25:40;;;;;;;;;;;;;;;;;;5012475;28;19952;-78
2023/05/19 16:30:40;;;;;;;;;;;;;;;;;;5043115;28;20407;-77
2023/05/19 16:33:06;;;;;;;;;;;;;;;;;;5044767;28;19917;-77
2023/05/19 16:35:37;;;;;;;;;;;;;;;;;;5032121;28;19913;-77
2023/05/19 16:38:02;;;;;;;;;;;;;;;;;;5033690;28;19913;-75
2023/05/19 16:40:28;;;;;;;;;;;;;;;;;;5049130;28;19947;-76
2023/05/19 16:42:53;;;;;;;;;;;;;;;;;;5033556;28;19921;-75
2023/05/19 16:45:18;;;;;;;;;;;;;;;;;;5033957;28;19913;-77
2023/05/19 16:47:47;;;;;;;;;;;;;;;;;;5032926;28;19948;-76
2023/05/19 16:50:12;;;;;;;;;;;;;;;;;;5049119;28;19954;-78
2023/05/19 16:52:37;;;;;;;;;;;;;;;;;;5034088;28;19959;-78